sensor_id;sensor_type;location;lat;lon;timestamp;pressure;altitude;pressure_sealevel;temperature;humidity
50434;BME280;36361;38.954;-9.002;2023-03-03T00:00:32;101212.22;;;9.80;85.57
50434;BME280;36361;38.954;-9.002;2023-03-03T00:01:33;101212.88;;;9.82;85.66
50434;BME280;36361;38.954;-9.002;2023-03-03T00:02:35;101219.84;;;9.91;85.41
50434;BME280;36361;38.954;-9.002;2023-03-03T00:03:37;101220.75;;;9.77;86.38
50434;BME280;36361;38.954;-9.002;2023-03-03T00:04:38;101212.03;;;9.82;86.67
50434;BME280;36361;38.954;-9.002;2023-03-03T00:05:40;101220.06;;;9.96;86.60
50434;BME280;36361;38.954;-9.002;2023-03-03T00:06:44;101212.47;;;9.85;86.18
50434;BME280;36361;38.954;-9.002;2023-03-03T00:07:46;101220.97;;;10.04;84.88
50434;BME280;36361;38.954;-9.002;2023-03-03T00:08:49;101213.84;;;10.03;85.15
50434;BME280;36361;38.954;-9.002;2023-03-03T00:09:50;101216.00;;;9.58;87.01
50434;BME280;36361;38.954;-9.002;2023-03-03T00:10:52;101221.66;;;9.84;84.99
50434;BME280;36361;38.954;-9.002;2023-03-03T00:11:57;101216.72;;;9.94;85.39
50434;BME280;36361;38.954;-9.002;2023-03-03T00:12:59;101220.06;;;9.96;85.93
50434;BME280;36361;38.954;-9.002;2023-03-03T00:14:00;101217.91;;;9.85;86.53
50434;BME280;36361;38.954;-9.002;2023-03-03T00:15:22;101214.81;;;9.88;86.54
50434;BME280;36361;38.954;-9.002;2023-03-03T00:16:31;101221.38;;;10.01;85.69
50434;BME280;36361;38.954;-9.002;2023-03-03T00:17:32;101215.03;;;9.93;86.24
50434;BME280;36361;38.954;-9.002;2023-03-03T00:18:35;101217.56;;;9.95;85.66
50434;BME280;36361;38.954;-9.002;2023-03-03T00:19:38;101217.34;;;9.96;86.10
50434;BME280;36361;38.954;-9.002;2023-03-03T00:20:48;101215.81;;;9.87;86.68
50434;BME280;36361;38.954;-9.002;2023-03-03T00:21:51;101218.34;;;9.39;89.52
50434;BME280;36361;38.954;-9.002;2023-03-03T00:22:53;101221.84;;;9.33;90.94
50434;BME280;36361;38.954;-9.002;2023-03-03T00:26:35;101212.19;;;8.73;96.88
50434;BME280;36361;38.954;-9.002;2023-03-03T00:27:37;101218.06;;;8.92;96.43
50434;BME280;36361;38.954;-9.002;2023-03-03T00:28:45;101215.19;;;8.78;98.07
50434;BME280;36361;38.954;-9.002;2023-03-03T00:29:58;101219.47;;;8.88;97.97
50434;BME280;36361;38.954;-9.002;2023-03-03T00:31:01;101221.28;;;8.66;100.00
50434;BME280;36361;38.954;-9.002;2023-03-03T00:33:32;101222.09;;;8.81;100.00
50434;BME280;36361;38.954;-9.002;2023-03-03T00:34:35;101217.78;;;8.87;99.72
50434;BME280;36361;38.954;-9.002;2023-03-03T00:35:37;101211.44;;;8.79;99.50
50434;BME280;36361;38.954;-9.002;2023-03-03T00:36:39;101208.31;;;8.61;100.00
50434;BME280;36361;38.954;-9.002;2023-03-03T00:37:41;101215.78;;;8.59;100.00
50434;BME280;36361;38.954;-9.002;2023-03-03T00:38:43;101212.59;;;8.55;100.00
50434;BME280;36361;38.954;-9.002;2023-03-03T00:39:45;101213.34;;;8.64;100.00
50434;BME280;36361;38.954;-9.002;2023-03-03T00:40:47;101211.00;;;8.32;100.00
50434;BME280;36361;38.954;-9.002;2023-03-03T00:41:48;101210.47;;;8.36;100.00
50434;BME280;36361;38.954;-9.002;2023-03-03T00:42:53;101209.78;;;8.19;100.00
50434;BME280;36361;38.954;-9.002;2023-03-03T00:43:55;101211.31;;;8.37;100.00
50434;BME280;36361;38.954;-9.002;2023-03-03T00:44:57;101212.78;;;8.54;100.00
50434;BME280;36361;38.954;-9.002;2023-03-03T00:45:59;101211.31;;;8.37;100.00
50434;BME280;36361;38.954;-9.002;2023-03-03T00:47:37;101215.69;;;8.23;100.00
50434;BME280;36361;38.954;-9.002;2023-03-03T00:48:43;101201.75;;;8.11;100.00
50434;BME280;36361;38.954;-9.002;2023-03-03T00:49:45;101200.91;;;8.40;100.00
50434;BME280;36361;38.954;-9.002;2023-03-03T00:50:46;101211.88;;;8.47;100.00
50434;BME280;36361;38.954;-9.002;2023-03-03T00:51:48;101210.34;;;8.30;100.00
50434;BME280;36361;38.954;-9.002;2023-03-03T00:53:14;101203.06;;;8.15;100.00
50434;BME280;36361;38.954;-9.002;2023-03-03T00:54:19;101204.84;;;8.08;100.00
50434;BME280;36361;38.954;-9.002;2023-03-03T00:55:21;101199.31;;;8.16;100.00
50434;BME280;36361;38.954;-9.002;2023-03-03T00:56:24;101199.13;;;8.03;100.00
50434;BME280;36361;38.954;-9.002;2023-03-03T00:57:27;101193.34;;;8.06;100.00
50434;BME280;36361;38.954;-9.002;2023-03-03T00:58:30;101187.63;;;8.16;100.00
50434;BME280;36361;38.954;-9.002;2023-03-03T00:59:32;101191.38;;;8.15;100.00
50434;BME280;36361;38.954;-9.002;2023-03-03T01:00:36;101199.78;;;8.49;100.00
50434;BME280;36361;38.954;-9.002;2023-03-03T01:01:42;101194.06;;;8.59;100.00
50434;BME280;36361;38.954;-9.002;2023-03-03T01:02:44;101190.78;;;8.64;100.00
50434;BME280;36361;38.954;-9.002;2023-03-03T01:03:46;101193.81;;;8.54;100.00
50434;BME280;36361;38.954;-9.002;2023-03-03T01:04:51;101198.31;;;8.32;100.00
50434;BME280;36361;38.954;-9.002;2023-03-03T01:06:02;101195.41;;;8.34;100.00
50434;BME280;36361;38.954;-9.002;2023-03-03T01:07:06;101192.97;;;8.39;100.00
50434;BME280;36361;38.954;-9.002;2023-03-03T01:08:09;101192.41;;;8.28;100.00
50434;BME280;36361;38.954;-9.002;2023-03-03T01:09:11;101193.91;;;8.16;100.00
50434;BME280;36361;38.954;-9.002;2023-03-03T01:10:13;101191.09;;;8.24;100.00
50434;BME280;36361;38.954;-9.002;2023-03-03T01:11:20;101193.72;;;8.33;100.00
50434;BME280;36361;38.954;-9.002;2023-03-03T01:12:30;101198.19;;;8.25;100.00
50434;BME280;36361;38.954;-9.002;2023-03-03T01:13:33;101187.34;;;8.25;100.00
50434;BME280;36361;38.954;-9.002;2023-03-03T01:14:36;101194.94;;;8.15;100.00
50434;BME280;36361;38.954;-9.002;2023-03-03T01:15:38;101193.53;;;8.19;100.00
50434;BME280;36361;38.954;-9.002;2023-03-03T01:16:41;101189.59;;;8.07;100.00
50434;BME280;36361;38.954;-9.002;2023-03-03T01:17:44;101189.13;;;8.04;100.00
50434;BME280;36361;38.954;-9.002;2023-03-03T01:18:48;101189.59;;;8.07;100.00
50434;BME280;36361;38.954;-9.002;2023-03-03T01:19:51;101198.47;;;7.86;100.00
50434;BME280;36361;38.954;-9.002;2023-03-03T01:20:53;101197.78;;;7.69;100.00
50434;BME280;36361;38.954;-9.002;2023-03-03T01:21:56;101190.03;;;7.81;100.00
50434;BME280;36361;38.954;-9.002;2023-03-03T01:22:58;101188.81;;;7.84;100.00
50434;BME280;36361;38.954;-9.002;2023-03-03T01:24:00;101187.97;;;7.83;100.00
50434;BME280;36361;38.954;-9.002;2023-03-03T01:25:01;101198.81;;;7.68;100.00
50434;BME280;36361;38.954;-9.002;2023-03-03T01:26:06;101191.34;;;7.85;100.00
50434;BME280;36361;38.954;-9.002;2023-03-03T01:27:08;101194.03;;;7.70;100.00
50434;BME280;36361;38.954;-9.002;2023-03-03T01:28:10;101196.75;;;7.85;100.00
50434;BME280;36361;38.954;-9.002;2023-03-03T01:29:12;101192.56;;;7.83;100.00
50434;BME280;36361;38.954;-9.002;2023-03-03T01:30:14;101198.28;;;7.88;100.00
50434;BME280;36361;38.954;-9.002;2023-03-03T01:31:16;101196.22;;;7.90;100.00
50434;BME280;36361;38.954;-9.002;2023-03-03T01:32:17;101189.50;;;8.01;100.00
50434;BME280;36361;38.954;-9.002;2023-03-03T01:33:19;101187.81;;;7.99;100.00
50434;BME280;36361;38.954;-9.002;2023-03-03T01:34:21;101194.06;;;8.00;100.00
50434;BME280;36361;38.954;-9.002;2023-03-03T01:35:23;101191.28;;;8.08;100.00
50434;BME280;36361;38.954;-9.002;2023-03-03T01:36:26;101193.41;;;8.13;100.00
50434;BME280;36361;38.954;-9.002;2023-03-03T01:37:28;101191.28;;;8.38;100.00
50434;BME280;36361;38.954;-9.002;2023-03-03T01:38:30;101193.13;;;8.22;100.00
50434;BME280;36361;38.954;-9.002;2023-03-03T01:39:32;101190.25;;;8.24;100.00
50434;BME280;36361;38.954;-9.002;2023-03-03T01:40:35;101185.97;;;8.15;100.00
50434;BME280;36361;38.954;-9.002;2023-03-03T01:41:38;101179.50;;;8.01;100.00
50434;BME280;36361;38.954;-9.002;2023-03-03T01:42:44;101191.25;;;7.79;100.00
50434;BME280;36361;38.954;-9.002;2023-03-03T01:43:48;101185.16;;;7.77;100.00
50434;BME280;36361;38.954;-9.002;2023-03-03T01:47:51;101189.94;;;7.75;100.00
50434;BME280;36361;38.954;-9.002;2023-03-03T01:49:06;101186.31;;;7.82;100.00
50434;BME280;36361;38.954;-9.002;2023-03-03T01:50:16;101188.16;;;7.82;100.00
50434;BME280;36361;38.954;-9.002;2023-03-03T01:51:30;101183.22;;;8.00;100.00
50434;BME280;36361;38.954;-9.002;2023-03-03T01:52:41;101197.53;;;7.94;100.00
50434;BME280;36361;38.954;-9.002;2023-03-03T01:53:54;101188.94;;;7.90;100.00
50434;BME280;36361;38.954;-9.002;2023-03-03T01:55:00;101197.00;;;7.61;100.00
50434;BME280;36361;38.954;-9.002;2023-03-03T01:56:05;101194.03;;;7.70;100.00
50434;BME280;36361;38.954;-9.002;2023-03-03T01:57:12;101189.63;;;7.55;100.00
50434;BME280;36361;38.954;-9.002;2023-03-03T01:58:25;101195.16;;;7.61;100.00
50434;BME280;36361;38.954;-9.002;2023-03-03T01:59:50;101194.13;;;7.62;100.00
50434;BME280;36361;38.954;-9.002;2023-03-03T02:01:06;101196.19;;;7.75;100.00
50434;BME280;36361;38.954;-9.002;2023-03-03T02:02:09;101191.34;;;7.85;100.00
50434;BME280;36361;38.954;-9.002;2023-03-03T02:03:11;101192.72;;;7.66;100.00
50434;BME280;36361;38.954;-9.002;2023-03-03T02:04:14;101187.63;;;7.49;100.00
50434;BME280;36361;38.954;-9.002;2023-03-03T02:05:16;101189.16;;;7.51;100.00
50434;BME280;36361;38.954;-9.002;2023-03-03T02:06:23;101186.38;;;7.59;100.00
50434;BME280;36361;38.954;-9.002;2023-03-03T02:07:27;101181.09;;;7.43;100.00
50434;BME280;36361;38.954;-9.002;2023-03-03T02:08:35;101183.50;;;7.38;100.00
50434;BME280;36361;38.954;-9.002;2023-03-03T02:10:01;101179.28;;;7.35;100.00
50434;BME280;36361;38.954;-9.002;2023-03-03T02:11:04;101174.25;;;7.09;100.00
50434;BME280;36361;38.954;-9.002;2023-03-03T02:12:08;101180.38;;;7.03;100.00
50434;BME280;36361;38.954;-9.002;2023-03-03T02:13:12;101181.72;;;7.07;100.00
50434;BME280;36361;38.954;-9.002;2023-03-03T02:14:14;101176.66;;;7.04;100.00
50434;BME280;36361;38.954;-9.002;2023-03-03T02:16:26;101175.66;;;7.05;100.00
50434;BME280;36361;38.954;-9.002;2023-03-03T02:17:28;101178.03;;;7.00;100.00
50434;BME280;36361;38.954;-9.002;2023-03-03T02:18:30;101170.38;;;7.04;100.00
50434;BME280;36361;38.954;-9.002;2023-03-03T02:19:41;101168.91;;;7.39;100.00
50434;BME280;36361;38.954;-9.002;2023-03-03T02:20:57;101186.38;;;7.59;100.00
50434;BME280;36361;38.954;-9.002;2023-03-03T02:22:03;101187.66;;;7.63;100.00
50434;BME280;36361;38.954;-9.002;2023-03-03T02:23:24;101182.66;;;7.37;100.00
50434;BME280;36361;38.954;-9.002;2023-03-03T02:24:46;101180.50;;;7.33;100.00
50434;BME280;36361;38.954;-9.002;2023-03-03T02:26:59;101187.25;;;7.14;100.00
50434;BME280;36361;38.954;-9.002;2023-03-03T02:28:02;101182.38;;;7.09;100.00
50434;BME280;36361;38.954;-9.002;2023-03-03T02:29:05;101185.44;;;7.06;100.00
50434;BME280;36361;38.954;-9.002;2023-03-03T02:30:19;101183.16;;;6.95;100.00
50434;BME280;36361;38.954;-9.002;2023-03-03T02:31:24;101177.09;;;6.85;100.00
50434;BME280;36361;38.954;-9.002;2023-03-03T02:32:28;101176.88;;;6.72;100.00
50434;BME280;36361;38.954;-9.002;2023-03-03T02:33:30;101179.88;;;6.77;100.00
50434;BME280;36361;38.954;-9.002;2023-03-03T02:34:47;101180.84;;;6.84;100.00
50434;BME280;36361;38.954;-9.002;2023-03-03T02:35:49;101185.31;;;6.77;100.00
50434;BME280;36361;38.954;-9.002;2023-03-03T02:36:52;101186.97;;;6.78;100.00
50434;BME280;36361;38.954;-9.002;2023-03-03T02:37:57;101180.00;;;6.83;100.00
50434;BME280;36361;38.954;-9.002;2023-03-03T02:39:21;101184.94;;;6.80;100.00
50434;BME280;36361;38.954;-9.002;2023-03-03T02:40:25;101177.09;;;6.85;100.00
50434;BME280;36361;38.954;-9.002;2023-03-03T02:43:07;101174.91;;;7.11;100.00
50434;BME280;36361;38.954;-9.002;2023-03-03T02:44:17;101169.50;;;7.11;100.00
50434;BME280;36361;38.954;-9.002;2023-03-03T02:45:20;101169.78;;;7.17;100.00
50434;BME280;36361;38.954;-9.002;2023-03-03T02:46:33;101164.63;;;7.07;100.00
50434;BME280;36361;38.954;-9.002;2023-03-03T02:47:36;101165.94;;;6.88;100.00
50434;BME280;36361;38.954;-9.002;2023-03-03T02:48:39;101153.78;;;6.84;100.00
50434;BME280;36361;38.954;-9.002;2023-03-03T02:49:41;101154.19;;;6.73;100.00
50434;BME280;36361;38.954;-9.002;2023-03-03T02:50:47;101153.44;;;6.87;100.00
50434;BME280;36361;38.954;-9.002;2023-03-03T02:51:51;101148.38;;;6.84;100.00
50434;BME280;36361;38.954;-9.002;2023-03-03T02:52:54;101147.28;;;6.93;100.00
50434;BME280;36361;38.954;-9.002;2023-03-03T02:53:58;101146.22;;;6.79;100.00
50434;BME280;36361;38.954;-9.002;2023-03-03T02:55:02;101148.84;;;6.65;100.00
50434;BME280;36361;38.954;-9.002;2023-03-03T02:56:07;101141.75;;;6.64;100.00
50434;BME280;36361;38.954;-9.002;2023-03-03T02:57:10;101142.78;;;6.63;100.00
50434;BME280;36361;38.954;-9.002;2023-03-03T02:58:13;101141.09;;;6.62;100.00
50434;BME280;36361;38.954;-9.002;2023-03-03T02:59:16;101141.38;;;6.67;100.00
50434;BME280;36361;38.954;-9.002;2023-03-03T03:00:21;101139.75;;;6.57;100.00
50434;BME280;36361;38.954;-9.002;2023-03-03T03:01:24;101130.22;;;6.70;100.00
50434;BME280;36361;38.954;-9.002;2023-03-03T03:02:28;101138.44;;;6.76;100.00
50434;BME280;36361;38.954;-9.002;2023-03-03T03:03:30;101129.25;;;6.85;100.00
50434;BME280;36361;38.954;-9.002;2023-03-03T03:04:32;101129.03;;;6.95;100.00
50434;BME280;36361;38.954;-9.002;2023-03-03T03:05:34;101129.72;;;7.12;100.00
50434;BME280;36361;38.954;-9.002;2023-03-03T03:06:37;101122.75;;;7.18;100.00
50434;BME280;36361;38.954;-9.002;2023-03-03T03:07:41;101126.19;;;7.11;100.00
50434;BME280;36361;38.954;-9.002;2023-03-03T03:08:44;101124.81;;;7.16;100.00
50434;BME280;36361;38.954;-9.002;2023-03-03T03:09:51;101119.84;;;7.04;100.00
50434;BME280;36361;38.954;-9.002;2023-03-03T03:10:56;101124.47;;;6.96;100.00
50434;BME280;36361;38.954;-9.002;2023-03-03T03:12:01;101125.41;;;6.80;100.00
50434;BME280;36361;38.954;-9.002;2023-03-03T03:13:08;101124.06;;;6.76;100.00
50434;BME280;36361;38.954;-9.002;2023-03-03T03:14:11;101127.94;;;6.81;100.00
50434;BME280;36361;38.954;-9.002;2023-03-03T03:15:14;101126.72;;;6.84;100.00
50434;BME280;36361;38.954;-9.002;2023-03-03T03:16:16;101123.13;;;6.69;100.00
50434;BME280;36361;38.954;-9.002;2023-03-03T03:17:19;101119.28;;;6.63;100.00
50434;BME280;36361;38.954;-9.002;2023-03-03T03:18:25;101120.78;;;6.66;100.00
50434;BME280;36361;38.954;-9.002;2023-03-03T03:19:29;101123.13;;;6.69;100.00
50434;BME280;36361;38.954;-9.002;2023-03-03T03:20:38;101115.81;;;6.46;100.00
50434;BME280;36361;38.954;-9.002;2023-03-03T03:21:43;101110.81;;;6.35;100.00
50434;BME280;36361;38.954;-9.002;2023-03-03T03:22:46;101110.78;;;6.43;100.00
50434;BME280;36361;38.954;-9.002;2023-03-03T03:23:48;101117.66;;;6.23;100.00
50434;BME280;36361;38.954;-9.002;2023-03-03T03:24:51;101112.09;;;6.16;100.00
50434;BME280;36361;38.954;-9.002;2023-03-03T03:25:53;101111.88;;;6.26;100.00
50434;BME280;36361;38.954;-9.002;2023-03-03T03:26:59;101107.78;;;6.30;100.00
50434;BME280;36361;38.954;-9.002;2023-03-03T03:28:02;101110.84;;;6.27;100.00
50434;BME280;36361;38.954;-9.002;2023-03-03T03:29:07;101117.28;;;6.26;100.00
50434;BME280;36361;38.954;-9.002;2023-03-03T03:30:13;101109.56;;;6.15;100.00
50434;BME280;36361;38.954;-9.002;2023-03-03T03:31:18;101106.53;;;6.10;100.00
50434;BME280;36361;38.954;-9.002;2023-03-03T03:32:21;101110.56;;;6.22;100.00
50434;BME280;36361;38.954;-9.002;2023-03-03T03:33:24;101112.78;;;6.49;100.00
50434;BME280;36361;38.954;-9.002;2023-03-03T03:34:28;101116.19;;;6.43;100.00
50434;BME280;36361;38.954;-9.002;2023-03-03T03:35:33;101111.72;;;6.59;100.00
50434;BME280;36361;38.954;-9.002;2023-03-03T03:36:35;101110.00;;;6.57;100.00
50434;BME280;36361;38.954;-9.002;2023-03-03T03:37:40;101105.00;;;6.46;100.00
50434;BME280;36361;38.954;-9.002;2023-03-03T03:38:43;101112.78;;;6.49;100.00
50434;BME280;36361;38.954;-9.002;2023-03-03T03:39:46;101110.38;;;6.54;100.00
50434;BME280;36361;38.954;-9.002;2023-03-03T03:40:51;101107.94;;;6.37;100.00
50434;BME280;36361;38.954;-9.002;2023-03-03T03:41:54;101103.78;;;6.26;100.00
50434;BME280;36361;38.954;-9.002;2023-03-03T03:42:57;101097.38;;;6.19;100.00
50434;BME280;36361;38.954;-9.002;2023-03-03T03:43:59;101107.69;;;6.23;100.00
50434;BME280;36361;38.954;-9.002;2023-03-03T03:45:02;101100.81;;;6.13;100.00
50434;BME280;36361;38.954;-9.002;2023-03-03T03:46:11;101109.97;;;6.35;100.00
50434;BME280;36361;38.954;-9.002;2023-03-03T03:47:14;101100.84;;;6.36;100.00
50434;BME280;36361;38.954;-9.002;2023-03-03T03:48:18;101102.84;;;6.42;100.00
50434;BME280;36361;38.954;-9.002;2023-03-03T03:49:26;101100.84;;;6.36;100.00
50434;BME280;36361;38.954;-9.002;2023-03-03T03:50:31;101102.06;;;6.33;100.00
50434;BME280;36361;38.954;-9.002;2023-03-03T03:51:34;101101.00;;;6.42;100.00
50434;BME280;36361;38.954;-9.002;2023-03-03T03:52:43;101103.59;;;6.59;100.00
50434;BME280;36361;38.954;-9.002;2023-03-03T03:53:47;101104.03;;;6.70;100.00
50434;BME280;36361;38.954;-9.002;2023-03-03T03:54:50;101097.53;;;6.79;100.00
50434;BME280;36361;38.954;-9.002;2023-03-03T03:55:53;101100.41;;;6.78;100.00
50434;BME280;36361;38.954;-9.002;2023-03-03T03:56:56;101103.50;;;6.67;100.00
50434;BME280;36361;38.954;-9.002;2023-03-03T03:58:02;101105.31;;;6.74;100.00
50434;BME280;36361;38.954;-9.002;2023-03-03T03:59:08;101101.59;;;6.52;100.00
50434;BME280;36361;38.954;-9.002;2023-03-03T04:00:12;101103.66;;;6.50;100.00
50434;BME280;36361;38.954;-9.002;2023-03-03T04:01:15;101103.50;;;6.67;100.00
50434;BME280;36361;38.954;-9.002;2023-03-03T04:02:22;101101.78;;;6.74;100.00
50434;BME280;36361;38.954;-9.002;2023-03-03T04:03:25;101105.00;;;6.77;100.00
50434;BME280;36361;38.954;-9.002;2023-03-03T04:04:29;101105.31;;;6.74;100.00
50434;BME280;36361;38.954;-9.002;2023-03-03T04:05:32;101103.88;;;6.64;100.00
50434;BME280;36361;38.954;-9.002;2023-03-03T04:06:37;101095.81;;;6.55;100.00
50434;BME280;36361;38.954;-9.002;2023-03-03T04:07:40;101106.50;;;6.49;100.00
50434;BME280;36361;38.954;-9.002;2023-03-03T04:08:43;101106.72;;;6.39;100.00
50434;BME280;36361;38.954;-9.002;2023-03-03T04:09:48;101102.47;;;6.45;100.00
50434;BME280;36361;38.954;-9.002;2023-03-03T04:10:50;101105.66;;;6.48;100.00
50434;BME280;36361;38.954;-9.002;2023-03-03T04:11:53;101104.81;;;6.48;100.00
50434;BME280;36361;38.954;-9.002;2023-03-03T04:12:56;101108.09;;;6.66;100.00
50434;BME280;36361;38.954;-9.002;2023-03-03T04:13:59;101104.25;;;6.61;100.00
50434;BME280;36361;38.954;-9.002;2023-03-03T04:15:01;101101.97;;;6.49;100.00
50434;BME280;36361;38.954;-9.002;2023-03-03T04:16:03;101096.78;;;6.63;100.00
50434;BME280;36361;38.954;-9.002;2023-03-03T04:17:07;101102.22;;;6.63;100.00
50434;BME280;36361;38.954;-9.002;2023-03-03T04:18:10;101094.13;;;6.54;100.00
50434;BME280;36361;38.954;-9.002;2023-03-03T04:19:12;101096.19;;;6.52;100.00
50434;BME280;36361;38.954;-9.002;2023-03-03T04:20:16;101087.75;;;6.47;100.00
50434;BME280;36361;38.954;-9.002;2023-03-03T04:21:20;101096.28;;;6.36;100.00
50434;BME280;36361;38.954;-9.002;2023-03-03T04:22:23;101092.31;;;6.24;100.00
50434;BME280;36361;38.954;-9.002;2023-03-03T04:23:25;101095.53;;;6.19;100.00
50434;BME280;36361;38.954;-9.002;2023-03-03T04:24:28;101099.38;;;6.25;100.00
50434;BME280;36361;38.954;-9.002;2023-03-03T04:25:31;101099.75;;;6.22;100.00
50434;BME280;36361;38.954;-9.002;2023-03-03T04:26:33;101099.03;;;6.28;100.00
50434;BME280;36361;38.954;-9.002;2023-03-03T04:27:37;101100.47;;;6.39;100.00
50434;BME280;36361;38.954;-9.002;2023-03-03T04:28:39;101106.13;;;6.60;100.00
50434;BME280;36361;38.954;-9.002;2023-03-03T04:29:41;101108.88;;;6.75;100.00
50434;BME280;36361;38.954;-9.002;2023-03-03T04:30:44;101109.75;;;6.44;100.00
50434;BME280;36361;38.954;-9.002;2023-03-03T04:31:50;101112.31;;;6.38;100.00
50434;BME280;36361;38.954;-9.002;2023-03-03T04:32:52;101108.44;;;6.40;100.00
50434;BME280;36361;38.954;-9.002;2023-03-03T04:33:57;101108.63;;;6.31;100.00
50434;BME280;36361;38.954;-9.002;2023-03-03T04:35:00;101115.53;;;6.41;100.00
50434;BME280;36361;38.954;-9.002;2023-03-03T04:36:03;101122.88;;;6.55;100.00
50434;BME280;36361;38.954;-9.002;2023-03-03T04:37:06;101125.75;;;6.54;100.00
50434;BME280;36361;38.954;-9.002;2023-03-03T04:38:08;101117.16;;;6.50;100.00
50434;BME280;36361;38.954;-9.002;2023-03-03T04:39:11;101120.94;;;6.41;100.00
50434;BME280;36361;38.954;-9.002;2023-03-03T04:40:14;101123.69;;;6.33;100.00
50434;BME280;36361;38.954;-9.002;2023-03-03T04:41:17;101124.66;;;6.40;100.00
50434;BME280;36361;38.954;-9.002;2023-03-03T04:42:20;101122.94;;;6.39;100.00
50434;BME280;36361;38.954;-9.002;2023-03-03T04:43:23;101125.41;;;6.26;100.00
50434;BME280;36361;38.954;-9.002;2023-03-03T04:44:26;101123.75;;;6.17;100.00
50434;BME280;36361;38.954;-9.002;2023-03-03T04:45:28;101121.53;;;6.20;100.00
50434;BME280;36361;38.954;-9.002;2023-03-03T04:46:31;101117.13;;;6.19;100.00
50434;BME280;36361;38.954;-9.002;2023-03-03T04:47:34;101117.28;;;6.26;100.00
50434;BME280;36361;38.954;-9.002;2023-03-03T04:48:36;101113.56;;;6.27;100.00
50434;BME280;36361;38.954;-9.002;2023-03-03T04:49:39;101121.63;;;6.35;100.00
50434;BME280;36361;38.954;-9.002;2023-03-03T04:50:42;101115.56;;;6.33;100.00
50434;BME280;36361;38.954;-9.002;2023-03-03T04:51:44;101120.66;;;6.28;100.00
50434;BME280;36361;38.954;-9.002;2023-03-03T04:52:47;101118.31;;;6.25;100.00
50434;BME280;36361;38.954;-9.002;2023-03-03T04:53:50;101119.78;;;6.36;100.00
50434;BME280;36361;38.954;-9.002;2023-03-03T04:54:53;101122.09;;;6.39;100.00
50434;BME280;36361;38.954;-9.002;2023-03-03T04:55:56;101127.75;;;6.29;100.00
50434;BME280;36361;38.954;-9.002;2023-03-03T04:56:59;101125.44;;;6.18;100.00
50434;BME280;36361;38.954;-9.002;2023-03-03T04:58:02;101127.88;;;6.36;100.00
50434;BME280;36361;38.954;-9.002;2023-03-03T04:59:05;101126.69;;;6.38;100.00
50434;BME280;36361;38.954;-9.002;2023-03-03T05:00:08;101126.22;;;6.57;100.00
50434;BME280;36361;38.954;-9.002;2023-03-03T05:01:13;101124.69;;;6.63;100.00
50434;BME280;36361;38.954;-9.002;2023-03-03T05:02:17;101125.53;;;6.64;100.00
50434;BME280;36361;38.954;-9.002;2023-03-03T05:03:21;101123.00;;;6.62;100.00
50434;BME280;36361;38.954;-9.002;2023-03-03T05:04:23;101118.72;;;6.45;100.00
50434;BME280;36361;38.954;-9.002;2023-03-03T05:05:23;101117.47;;;6.55;100.00
50434;BME280;36361;38.954;-9.002;2023-03-03T05:06:24;101119.47;;;6.62;100.00
50434;BME280;36361;38.954;-9.002;2023-03-03T05:07:24;101121.66;;;6.58;100.00
50434;BME280;36361;38.954;-9.002;2023-03-03T05:08:28;101115.06;;;6.61;100.00
50434;BME280;36361;38.954;-9.002;2023-03-03T05:09:29;101117.22;;;6.65;100.00
50434;BME280;36361;38.954;-9.002;2023-03-03T05:10:30;101117.28;;;6.57;100.00
50434;BME280;36361;38.954;-9.002;2023-03-03T05:11:33;101116.56;;;6.40;100.00
50434;BME280;36361;38.954;-9.002;2023-03-03T05:12:35;101113.78;;;6.48;100.00
50434;BME280;36361;38.954;-9.002;2023-03-03T05:13:35;101117.63;;;6.31;100.00
50434;BME280;36361;38.954;-9.002;2023-03-03T05:14:36;101117.06;;;6.05;100.00
50434;BME280;36361;38.954;-9.002;2023-03-03T05:15:37;101117.38;;;6.02;100.00
50434;BME280;36361;38.954;-9.002;2023-03-03T05:16:37;101112.50;;;6.05;100.00
50434;BME280;36361;38.954;-9.002;2023-03-03T05:17:38;101108.59;;;6.08;100.00
50434;BME280;36361;38.954;-9.002;2023-03-03T05:18:39;101108.22;;;6.11;100.00
50434;BME280;36361;38.954;-9.002;2023-03-03T05:19:39;101110.47;;;5.99;100.00
50434;BME280;36361;38.954;-9.002;2023-03-03T05:20:40;101110.00;;;5.95;100.00
50434;BME280;36361;38.954;-9.002;2023-03-03T05:21:41;101108.94;;;6.05;100.00
50434;BME280;36361;38.954;-9.002;2023-03-03T05:22:42;101108.81;;;5.82;100.00
50434;BME280;36361;38.954;-9.002;2023-03-03T05:23:43;101114.38;;;5.96;100.00
50434;BME280;36361;38.954;-9.002;2023-03-03T05:24:44;101110.91;;;6.19;100.00
50434;BME280;36361;38.954;-9.002;2023-03-03T05:25:49;101123.06;;;6.23;100.00
50434;BME280;36361;38.954;-9.002;2023-03-03T05:26:50;101109.97;;;6.04;100.00
50434;BME280;36361;38.954;-9.002;2023-03-03T05:27:51;101112.19;;;5.84;100.00
50434;BME280;36361;38.954;-9.002;2023-03-03T05:28:52;101116.28;;;5.63;100.00
50434;BME280;36361;38.954;-9.002;2023-03-03T05:29:52;101103.63;;;5.72;100.00
50434;BME280;36361;38.954;-9.002;2023-03-03T05:30:53;101109.50;;;5.76;100.00
50434;BME280;36361;38.954;-9.002;2023-03-03T05:31:54;101109.66;;;5.82;100.00
50434;BME280;36361;38.954;-9.002;2023-03-03T05:32:54;101107.78;;;5.99;100.00
50434;BME280;36361;38.954;-9.002;2023-03-03T05:33:55;101100.44;;;6.16;100.00
50434;BME280;36361;38.954;-9.002;2023-03-03T05:34:55;101106.22;;;6.13;100.00
50434;BME280;36361;38.954;-9.002;2023-03-03T05:35:56;101111.31;;;5.99;100.00
50434;BME280;36361;38.954;-9.002;2023-03-03T05:36:57;101112.69;;;5.95;100.00
50434;BME280;36361;38.954;-9.002;2023-03-03T05:37:58;101105.25;;;5.89;100.00
50434;BME280;36361;38.954;-9.002;2023-03-03T05:38:59;101116.06;;;5.97;100.00
50434;BME280;36361;38.954;-9.002;2023-03-03T05:40:00;101122.31;;;5.98;100.00
50434;BME280;36361;38.954;-9.002;2023-03-03T05:41:01;101123.16;;;5.90;100.00
50434;BME280;36361;38.954;-9.002;2023-03-03T05:42:01;101117.59;;;5.84;100.00